createdAt,value
2023-01-03T00:00:11.169Z,8.13
2023-01-03T00:02:39.780Z,8.35
2023-01-03T00:05:09.300Z,7.82
2023-01-03T00:07:37.505Z,7.85
2023-01-03T00:10:08.586Z,7.20
2023-01-03T00:12:37.792Z,7.60
2023-01-03T00:15:07.031Z,6.80
2023-01-03T00:17:35.729Z,8.27
2023-01-03T00:20:04.155Z,8.63
2023-01-03T00:22:33.407Z,8.10
2023-01-03T00:25:01.707Z,8.20
2023-01-03T00:27:30.493Z,8.43
2023-01-03T00:30:00.189Z,7.63
2023-01-03T00:32:28.777Z,7.95
2023-01-03T00:35:01.585Z,7.65
2023-01-03T00:37:33.290Z,8.38
2023-01-03T00:40:01.929Z,8.55
2023-01-03T00:42:30.181Z,8.95
2023-01-03T00:44:59.917Z,9.27
2023-01-03T00:47:28.357Z,9.50
2023-01-03T00:49:56.605Z,8.35
2023-01-03T00:52:25.059Z,9.30
2023-01-03T00:54:53.451Z,9.88
2023-01-03T00:57:21.599Z,10.52
2023-01-03T00:59:50.102Z,10.25
2023-01-03T01:02:20.516Z,9.85
2023-01-03T01:04:48.976Z,10.98
2023-01-03T01:07:17.681Z,12.50
2023-01-03T01:09:46.286Z,13.82
2023-01-03T01:12:14.518Z,13.05
2023-01-03T01:14:43.050Z,14.07
2023-01-03T01:17:11.457Z,14.50
2023-01-03T01:19:44.727Z,15.13
2023-01-03T01:22:14.146Z,16.20
2023-01-03T01:24:42.648Z,20.40
2023-01-03T01:27:11.528Z,21.80
2023-01-03T01:29:40.424Z,20.38
2023-01-03T01:32:09.146Z,19.38
2023-01-03T01:34:37.781Z,19.77
2023-01-03T01:37:07.472Z,19.83
2023-01-03T01:39:35.636Z,18.75
2023-01-03T01:42:28.688Z,19.90
2023-01-03T01:44:59.887Z,20.95
2023-01-03T01:47:39.906Z,20.60
2023-01-03T01:50:22.013Z,21.60
2023-01-03T01:52:55.739Z,21.50
2023-01-03T01:57:54.080Z,21.02
2023-01-03T02:00:23.431Z,22.10
2023-01-03T02:02:54.145Z,22.33
2023-01-03T02:05:25.324Z,22.17
2023-01-03T02:07:56.381Z,21.65
2023-01-03T02:10:34.010Z,22.38
2023-01-03T02:13:08.593Z,23.15
2023-01-03T02:15:59.408Z,23.27
2023-01-03T02:18:38.948Z,23.65
2023-01-03T02:21:44.673Z,23.17
2023-01-03T02:24:38.462Z,23.27
2023-01-03T02:27:22.340Z,23.02
2023-01-03T02:30:18.241Z,22.00
2023-01-03T02:32:53.280Z,21.65
2023-01-03T02:35:31.608Z,22.00
2023-01-03T02:38:06.860Z,21.00
2023-01-03T02:40:38.724Z,20.77
2023-01-03T02:43:13.079Z,20.88
2023-01-03T02:45:56.103Z,19.58
2023-01-03T02:48:35.111Z,21.43
2023-01-03T02:51:08.771Z,21.30
2023-01-03T02:56:14.051Z,19.85
2023-01-03T02:58:46.335Z,20.80
2023-01-03T03:01:18.195Z,20.73
2023-01-03T03:03:48.340Z,20.38
2023-01-03T03:06:24.940Z,19.73
2023-01-03T03:08:53.664Z,21.27
2023-01-03T03:11:40.360Z,22.88
2023-01-03T03:14:15.899Z,21.00
2023-01-03T03:16:51.176Z,20.05
2023-01-03T03:19:43.478Z,20.23
2023-01-03T03:22:37.380Z,20.20
2023-01-03T03:25:10.917Z,20.00
2023-01-03T03:28:00.863Z,19.08
2023-01-03T03:30:30.744Z,19.40
2023-01-03T03:33:05.757Z,19.10
2023-01-03T03:35:40.652Z,17.38
2023-01-03T03:38:12.688Z,17.67
2023-01-03T03:41:06.503Z,17.17
2023-01-03T03:44:00.759Z,18.00
2023-01-03T03:49:24.038Z,17.35
2023-01-03T03:51:57.378Z,17.77
2023-01-03T03:54:26.874Z,17.05
2023-01-03T03:57:03.201Z,17.35
2023-01-03T03:59:33.473Z,17.63
2023-01-03T04:02:06.626Z,16.75
2023-01-03T04:04:38.962Z,15.80
2023-01-03T04:07:07.866Z,16.98
2023-01-03T04:09:36.020Z,16.48
2023-01-03T04:12:04.542Z,16.88
2023-01-03T04:14:33.671Z,16.45
2023-01-03T04:17:01.853Z,15.02
2023-01-03T04:19:30.634Z,14.93
2023-01-03T04:22:00.471Z,16.02
2023-01-03T04:24:28.738Z,15.55
2023-01-03T04:26:57.672Z,15.25
2023-01-03T04:29:26.388Z,15.23
2023-01-03T04:31:54.618Z,15.50
2023-01-03T04:34:22.992Z,14.75
2023-01-03T04:36:51.703Z,15.23
2023-01-03T04:39:21.341Z,14.93
2023-01-03T04:41:49.573Z,16.25
2023-01-03T04:44:17.244Z,15.30
2023-01-03T04:46:52.297Z,14.20
2023-01-03T04:49:21.579Z,15.25
2023-01-03T04:51:50.070Z,15.43
2023-01-03T04:54:18.297Z,15.88
2023-01-03T04:56:48.112Z,15.98
2023-01-03T04:59:16.515Z,16.95
2023-01-03T05:01:52.684Z,17.02
2023-01-03T05:04:21.523Z,18.77
2023-01-03T05:06:49.748Z,18.95
2023-01-03T05:09:18.159Z,18.88
2023-01-03T05:11:48.166Z,19.10
2023-01-03T05:14:16.548Z,19.70
2023-01-03T05:16:45.126Z,19.83
2023-01-03T05:19:13.900Z,20.63
2023-01-03T05:21:59.505Z,19.58
2023-01-03T05:24:56.478Z,20.55
2023-01-03T05:27:26.710Z,21.40
2023-01-03T05:29:56.483Z,22.20
2023-01-03T05:32:25.244Z,21.67
2023-01-03T05:34:53.761Z,23.15
2023-01-03T05:37:23.168Z,22.63
2023-01-03T05:39:51.382Z,24.35
2023-01-03T05:42:20.122Z,23.27
2023-01-03T05:44:49.737Z,24.30
2023-01-03T05:47:17.902Z,23.63
2023-01-03T05:49:46.412Z,24.10
2023-01-03T05:52:14.877Z,24.75
2023-01-03T05:54:43.091Z,25.17
2023-01-03T05:57:11.624Z,25.13
2023-01-03T05:59:40.192Z,26.45
2023-01-03T06:02:09.903Z,26.50
2023-01-03T06:04:38.474Z,26.48
2023-01-03T06:07:06.892Z,26.67
2023-01-03T06:09:35.396Z,27.80
2023-01-03T06:12:03.779Z,27.83
2023-01-03T06:14:32.045Z,28.52
2023-01-03T06:17:17.910Z,28.13
2023-01-03T06:19:47.692Z,27.73
2023-01-03T06:22:16.182Z,27.48
2023-01-03T06:24:44.848Z,27.05
2023-01-03T06:27:13.096Z,27.77
2023-01-03T06:29:41.578Z,27.13
2023-01-03T06:32:10.428Z,28.13
2023-01-03T06:34:38.710Z,26.05
2023-01-03T06:37:08.534Z,26.40
2023-01-03T06:39:37.086Z,26.88
2023-01-03T06:42:19.840Z,26.33
2023-01-03T06:45:08.653Z,27.08
2023-01-03T06:47:55.622Z,24.92
2023-01-03T06:50:41.756Z,24.83
2023-01-03T06:53:15.567Z,25.35
2023-01-03T06:55:48.809Z,23.85
2023-01-03T06:58:21.175Z,23.02
2023-01-03T07:00:49.437Z,25.38
2023-01-03T07:03:17.682Z,24.05
2023-01-03T07:05:46.068Z,23.95
2023-01-03T07:08:15.923Z,25.52
2023-01-03T07:10:44.129Z,24.38
2023-01-03T07:13:30.172Z,24.90
2023-01-03T07:15:58.421Z,24.60
2023-01-03T07:18:27.295Z,24.73
2023-01-03T07:20:56.468Z,24.95
2023-01-03T07:23:26.080Z,25.30
2023-01-03T07:25:56.715Z,24.23
2023-01-03T07:28:25.290Z,24.85
2023-01-03T07:30:53.917Z,26.85
2023-01-03T07:33:22.147Z,26.17
2023-01-03T07:35:50.605Z,25.63
2023-01-03T07:38:19.091Z,27.05
2023-01-03T07:40:48.706Z,28.70
2023-01-03T07:43:34.916Z,27.10
2023-01-03T07:46:07.427Z,28.25
2023-01-03T07:48:36.296Z,28.10
2023-01-03T07:51:05.582Z,29.88
2023-01-03T07:53:34.784Z,28.08
2023-01-03T07:56:12.385Z,28.88
2023-01-03T07:58:42.832Z,31.73
2023-01-03T08:01:13.562Z,32.08
2023-01-03T08:03:43.089Z,30.77
2023-01-03T08:06:13.464Z,30.30
2023-01-03T08:08:42.366Z,29.20
2023-01-03T08:11:31.260Z,29.15
2023-01-03T08:14:00.200Z,27.55
2023-01-03T08:16:28.725Z,25.90
2023-01-03T08:18:56.981Z,26.52
2023-01-03T08:21:25.211Z,24.92
2023-01-03T08:23:53.561Z,23.30
2023-01-03T08:26:23.093Z,23.75
2023-01-03T08:28:51.455Z,22.85
2023-01-03T08:31:22.356Z,21.50
2023-01-03T08:33:54.648Z,22.30
2023-01-03T08:36:24.603Z,19.98
2023-01-03T08:38:58.713Z,18.55
2023-01-03T08:41:32.907Z,16.83
2023-01-03T08:44:04.288Z,16.85
2023-01-03T08:46:34.495Z,17.38
2023-01-03T08:49:03.379Z,16.95
2023-01-03T08:51:31.761Z,16.77
2023-01-03T08:53:59.990Z,16.85
2023-01-03T08:56:29.985Z,16.05
2023-01-03T08:58:58.824Z,15.57
2023-01-03T09:01:27.697Z,15.20
2023-01-03T09:03:56.289Z,14.40
2023-01-03T09:06:24.767Z,14.57
2023-01-03T09:08:53.054Z,13.73
2023-01-03T09:11:21.333Z,13.40
2023-01-03T09:13:51.038Z,13.25
2023-01-03T09:16:20.623Z,13.82
2023-01-03T09:18:48.993Z,12.90
2023-01-03T09:21:17.256Z,13.20
2023-01-03T09:23:45.716Z,11.98
2023-01-03T09:26:14.085Z,11.40
2023-01-03T09:28:42.350Z,11.70
2023-01-03T09:31:11.934Z,11.30
2023-01-03T09:33:41.018Z,11.60
2023-01-03T09:36:10.052Z,10.90
2023-01-03T09:38:38.302Z,10.80
2023-01-03T09:41:09.788Z,10.13
2023-01-03T09:43:42.279Z,9.85
2023-01-03T09:46:18.515Z,9.15
2023-01-03T09:48:48.864Z,8.73
2023-01-03T09:51:34.961Z,8.63
2023-01-03T09:54:21.026Z,8.52
2023-01-03T09:57:06.898Z,8.27
2023-01-03T09:59:55.940Z,8.77
2023-01-03T10:03:05.886Z,8.05
2023-01-03T10:06:00.901Z,7.45
2023-01-03T10:08:39.150Z,8.25
2023-01-03T10:11:10.461Z,7.38
2023-01-03T10:14:06.140Z,7.60
2023-01-03T10:16:43.393Z,7.72
2023-01-03T10:19:33.506Z,8.38
2023-01-03T10:22:07.603Z,7.35
2023-01-03T10:24:42.748Z,7.32
2023-01-03T10:27:16.908Z,6.97
2023-01-03T10:29:47.163Z,7.53
2023-01-03T10:32:36.206Z,7.85
2023-01-03T10:35:21.709Z,7.00
2023-01-03T10:37:53.335Z,7.18
2023-01-03T10:40:22.719Z,7.35
2023-01-03T10:42:55.545Z,7.10
2023-01-03T10:45:23.988Z,7.40
2023-01-03T10:48:00.478Z,7.00
2023-01-03T10:50:30.831Z,6.68
2023-01-03T10:53:05.435Z,6.70
2023-01-03T10:55:35.940Z,6.88
2023-01-03T10:58:15.879Z,6.32
2023-01-03T11:00:44.450Z,6.43
2023-01-03T11:03:18.092Z,6.40
2023-01-03T11:08:22.835Z,6.65
2023-01-03T11:10:54.168Z,6.90
2023-01-03T11:13:31.527Z,6.75
2023-01-03T11:16:01.674Z,7.40
2023-01-03T11:18:31.782Z,7.20
2023-01-03T11:21:19.069Z,7.47
2023-01-03T11:24:09.298Z,6.13
2023-01-03T11:26:49.415Z,6.18
2023-01-03T11:29:36.950Z,5.90
2023-01-03T11:32:23.688Z,5.68
2023-01-03T11:35:23.972Z,5.43
2023-01-03T11:38:03.734Z,6.13
2023-01-03T11:40:44.843Z,6.05
2023-01-03T11:43:28.421Z,6.22
2023-01-03T11:46:16.681Z,6.45
2023-01-03T11:49:01.182Z,5.82
2023-01-03T11:51:37.557Z,6.18
2023-01-03T11:54:24.510Z,6.68
2023-01-03T11:56:52.754Z,5.60
2023-01-03T11:59:42.108Z,6.22
2023-01-03T12:02:44.700Z,6.10
2023-01-03T12:05:38.994Z,7.45
2023-01-03T12:10:55.011Z,7.15
2023-01-03T12:13:30.361Z,6.45
2023-01-03T12:16:05.822Z,7.82
2023-01-03T12:18:43.557Z,6.13
2023-01-03T12:21:15.002Z,6.38
2023-01-03T12:23:48.055Z,6.18
2023-01-03T12:26:18.448Z,6.18
2023-01-03T12:28:52.892Z,6.75
2023-01-03T12:31:31.345Z,5.80
2023-01-03T12:34:10.877Z,6.47
2023-01-03T12:36:44.477Z,6.70
2023-01-03T12:39:33.640Z,6.43
2023-01-03T12:42:08.140Z,6.18
2023-01-03T12:44:40.785Z,6.25
2023-01-03T12:47:19.034Z,6.05
2023-01-03T12:49:56.055Z,5.60
2023-01-03T12:52:27.244Z,6.13
2023-01-03T12:55:00.533Z,6.13
2023-01-03T12:57:45.410Z,5.70
2023-01-03T13:00:26.717Z,6.32
2023-01-03T13:02:59.771Z,5.07
2023-01-03T13:05:37.054Z,6.00
2023-01-03T13:08:14.263Z,5.55
2023-01-03T13:10:48.471Z,5.13
2023-01-03T13:13:21.300Z,5.43
2023-01-03T13:15:49.907Z,5.43
2023-01-03T13:18:33.822Z,5.65
2023-01-03T13:23:36.798Z,6.20
2023-01-03T13:26:25.434Z,5.80
2023-01-03T13:29:33.745Z,5.10
2023-01-03T13:32:15.463Z,5.70
2023-01-03T13:34:44.002Z,5.20
2023-01-03T13:37:20.990Z,5.25
2023-01-03T13:41:07.509Z,4.75
2023-01-03T13:43:21.750Z,4.78
2023-01-03T13:45:59.873Z,5.13
2023-01-03T13:48:43.127Z,4.95
2023-01-03T13:51:43.749Z,5.10
2023-01-03T13:54:51.952Z,4.95
2023-01-03T13:57:37.274Z,5.38
2023-01-03T14:00:23.434Z,5.60
2023-01-03T14:03:17.863Z,5.97
2023-01-03T14:06:21.453Z,5.72
2023-01-03T14:09:28.472Z,5.97
2023-01-03T14:12:24.016Z,5.95
2023-01-03T14:14:56.332Z,5.97
2023-01-03T14:17:30.277Z,6.15
2023-01-03T14:20:05.295Z,6.47
2023-01-03T14:22:39.591Z,6.32
2023-01-03T14:25:10.627Z,6.22
2023-01-03T14:27:41.551Z,6.00
2023-01-03T14:30:22.187Z,6.57
2023-01-03T14:32:51.009Z,6.30
2023-01-03T14:35:38.347Z,6.78
2023-01-03T14:38:07.672Z,6.68
2023-01-03T14:40:36.215Z,7.65
2023-01-03T14:43:07.573Z,7.30
2023-01-03T14:45:35.889Z,6.20
2023-01-03T14:48:06.220Z,6.75
2023-01-03T14:50:36.187Z,6.28
2023-01-03T14:53:04.511Z,6.93
2023-01-03T14:55:34.553Z,6.80
2023-01-03T14:58:04.810Z,6.78
2023-01-03T15:00:36.957Z,6.45
2023-01-03T15:03:06.473Z,6.47
2023-01-03T15:05:39.581Z,5.95
2023-01-03T15:08:20.615Z,6.40
2023-01-03T15:10:54.377Z,6.30
2023-01-03T15:13:27.675Z,6.43
2023-01-03T15:15:57.796Z,6.65
2023-01-03T15:18:29.718Z,7.20
2023-01-03T15:21:01.860Z,6.57
2023-01-03T15:23:40.750Z,5.75
2023-01-03T15:26:19.786Z,6.40
2023-01-03T15:28:54.455Z,6.30
2023-01-03T15:31:31.380Z,5.80
2023-01-03T15:34:12.242Z,6.32
2023-01-03T15:36:42.656Z,6.90
2023-01-03T15:39:19.708Z,6.35
2023-01-03T15:42:42.222Z,6.22
2023-01-03T15:44:55.702Z,6.20
2023-01-03T15:47:26.572Z,6.07
2023-01-03T15:49:59.577Z,6.55
2023-01-03T15:52:29.604Z,6.70
2023-01-03T15:54:57.906Z,7.00
2023-01-03T15:57:31.391Z,7.40
2023-01-03T16:00:02.890Z,7.18
2023-01-03T16:02:31.946Z,7.00
2023-01-03T16:05:00.689Z,8.20
2023-01-03T16:07:30.267Z,7.97
2023-01-03T16:09:58.505Z,7.43
2023-01-03T16:12:36.592Z,7.93
2023-01-03T16:15:08.674Z,6.70
2023-01-03T16:17:43.780Z,7.82
2023-01-03T16:20:16.165Z,7.47
2023-01-03T16:22:59.532Z,7.35
2023-01-03T16:25:30.060Z,6.57
2023-01-03T16:27:58.610Z,7.43
2023-01-03T16:30:26.949Z,7.35
2023-01-03T16:32:55.328Z,6.70
2023-01-03T16:35:24.053Z,7.25
2023-01-03T16:37:53.603Z,6.70
2023-01-03T16:40:22.770Z,6.82
2023-01-03T16:42:51.299Z,6.93
2023-01-03T16:45:19.770Z,6.97
2023-01-03T16:47:49.006Z,6.70
2023-01-03T16:50:19.356Z,6.47
2023-01-03T16:52:52.354Z,6.28
2023-01-03T16:55:27.524Z,6.55
2023-01-03T16:57:55.892Z,6.40
2023-01-03T17:00:26.755Z,5.95
2023-01-03T17:02:56.213Z,6.07
2023-01-03T17:05:24.889Z,6.22
2023-01-03T17:07:57.914Z,5.20
2023-01-03T17:10:31.103Z,5.53
2023-01-03T17:13:03.919Z,6.22
2023-01-03T17:15:35.584Z,5.30
2023-01-03T17:18:04.158Z,6.30
2023-01-03T17:20:32.473Z,5.38
2023-01-03T17:23:01.617Z,5.72
2023-01-03T17:25:31.818Z,5.97
2023-01-03T17:28:01.153Z,5.10
2023-01-03T17:30:30.338Z,4.93
2023-01-03T17:32:59.010Z,4.80
2023-01-03T17:35:27.804Z,7.85
2023-01-03T17:38:24.680Z,5.40
2023-01-03T17:40:49.268Z,5.38
2023-01-03T17:43:20.729Z,5.13
2023-01-03T17:46:07.737Z,4.93
2023-01-03T17:48:54.194Z,4.50
2023-01-03T17:51:23.241Z,4.55
2023-01-03T17:53:52.714Z,5.15
2023-01-03T17:56:22.319Z,4.78
2023-01-03T17:58:56.186Z,4.65
2023-01-03T18:01:25.313Z,5.63
2023-01-03T18:03:54.004Z,4.88
2023-01-03T18:06:24.021Z,6.47
2023-01-03T18:08:55.750Z,15.73
2023-01-03T18:11:28.752Z,10.38
2023-01-03T18:13:57.406Z,8.70
2023-01-03T18:16:26.144Z,7.95
2023-01-03T18:18:54.445Z,6.53
2023-01-03T18:21:24.540Z,5.50
2023-01-03T18:23:56.903Z,6.57
2023-01-03T18:26:31.000Z,5.53
2023-01-03T18:28:59.617Z,5.20
2023-01-03T18:31:27.830Z,5.18
2023-01-03T18:33:57.524Z,5.43
2023-01-03T18:36:28.456Z,5.38
2023-01-03T18:39:02.379Z,5.00
2023-01-03T18:41:34.478Z,5.15
2023-01-03T18:44:02.769Z,5.65
2023-01-03T18:46:31.383Z,4.63
2023-01-03T18:48:59.845Z,4.30
2023-01-03T18:51:30.021Z,4.88
2023-01-03T18:54:00.506Z,4.72
2023-01-03T18:56:35.877Z,4.75
2023-01-03T18:59:07.541Z,5.10
2023-01-03T19:01:36.229Z,5.45
2023-01-03T19:04:04.600Z,4.75
2023-01-03T19:06:33.603Z,5.35
2023-01-03T19:09:05.913Z,4.53
2023-01-03T19:11:38.001Z,4.68
2023-01-03T19:14:08.942Z,4.85
2023-01-03T19:16:39.415Z,4.40
2023-01-03T19:19:08.625Z,4.53
2023-01-03T19:21:39.298Z,4.63
2023-01-03T19:24:15.052Z,4.70
2023-01-03T19:26:48.138Z,4.50
2023-01-03T19:29:22.010Z,5.30
2023-01-03T19:31:52.687Z,4.88
2023-01-03T19:34:22.905Z,4.60
2023-01-03T19:36:51.725Z,4.07
2023-01-03T19:39:25.587Z,5.68
2023-01-03T19:42:15.889Z,5.57
2023-01-03T19:44:45.039Z,4.68
2023-01-03T19:47:15.311Z,4.32
2023-01-03T19:49:44.319Z,4.10
2023-01-03T19:52:12.554Z,4.47
2023-01-03T19:54:41.334Z,4.03
2023-01-03T19:57:19.540Z,4.38
2023-01-03T19:59:52.616Z,4.60
2023-01-03T20:02:36.068Z,4.35
2023-01-03T20:05:07.512Z,3.97
2023-01-03T20:07:35.850Z,4.32
2023-01-03T20:10:04.442Z,4.50
2023-01-03T20:12:35.173Z,3.92
2023-01-03T20:15:07.305Z,4.72
2023-01-03T20:17:36.603Z,4.30
2023-01-03T20:20:05.781Z,4.00
2023-01-03T20:25:28.409Z,4.47
2023-01-03T20:27:59.754Z,4.68
2023-01-03T20:30:30.892Z,4.47
2023-01-03T20:32:59.785Z,4.93
2023-01-03T20:38:25.021Z,4.72
2023-01-03T20:40:53.574Z,3.60
2023-01-03T20:43:24.053Z,3.90
2023-01-03T20:45:55.375Z,4.07
2023-01-03T20:48:26.182Z,3.97
2023-01-03T20:50:55.053Z,4.10
2023-01-03T20:53:24.880Z,4.43
2023-01-03T20:55:53.953Z,3.83
2023-01-03T20:58:26.413Z,3.95
2023-01-03T21:01:02.074Z,3.85
2023-01-03T21:03:34.737Z,3.90
2023-01-03T21:06:03.931Z,3.67
2023-01-03T21:08:49.734Z,4.50
2023-01-03T21:11:18.259Z,4.15
2023-01-03T21:13:47.877Z,4.00
2023-01-03T21:16:27.614Z,4.05
2023-01-03T21:18:56.520Z,4.47
2023-01-03T21:21:25.663Z,4.60
2023-01-03T21:23:55.693Z,3.97
2023-01-03T21:26:24.066Z,4.65
2023-01-03T21:28:53.845Z,4.15
2023-01-03T21:31:24.341Z,3.60
2023-01-03T21:33:53.199Z,4.03
2023-01-03T21:36:25.625Z,4.70
2023-01-03T21:38:53.958Z,3.60
2023-01-03T21:41:24.293Z,3.90
2023-01-03T21:43:55.850Z,4.28
2023-01-03T21:46:24.924Z,4.00
2023-01-03T21:48:53.665Z,4.65
2023-01-03T21:51:35.088Z,4.07
2023-01-03T21:54:07.341Z,4.35
2023-01-03T21:56:44.757Z,4.72
2023-01-03T21:59:15.014Z,5.18
2023-01-03T22:02:02.393Z,4.55
2023-01-03T22:04:31.051Z,4.75
2023-01-03T22:07:01.293Z,4.65
2023-01-03T22:09:48.600Z,4.82
2023-01-03T22:12:17.191Z,4.80
2023-01-03T22:14:47.417Z,5.00
2023-01-03T22:17:16.460Z,4.78
2023-01-03T22:19:44.800Z,4.70
2023-01-03T22:22:13.014Z,4.82
2023-01-03T22:24:41.352Z,5.20
2023-01-03T22:27:09.790Z,5.35
2023-01-03T22:29:37.982Z,4.53
2023-01-03T22:32:09.836Z,5.18
2023-01-03T22:34:39.753Z,4.97
2023-01-03T22:37:08.032Z,5.43
2023-01-03T22:39:36.390Z,5.03
2023-01-03T22:42:04.795Z,5.15
2023-01-03T22:44:33.181Z,5.45
2023-01-03T22:47:01.610Z,5.57
2023-01-03T22:49:31.486Z,5.75
2023-01-03T22:51:59.815Z,5.65
2023-01-03T22:54:28.121Z,5.60
2023-01-03T22:56:57.121Z,5.88
2023-01-03T22:59:25.710Z,5.38
2023-01-03T23:01:54.431Z,5.70
2023-01-03T23:04:24.413Z,5.38
2023-01-03T23:06:54.735Z,5.13
2023-01-03T23:09:24.230Z,5.25
2023-01-03T23:12:10.070Z,5.07
2023-01-03T23:14:38.711Z,5.25
2023-01-03T23:17:24.429Z,5.13
2023-01-03T23:19:53.074Z,5.05
2023-01-03T23:22:22.690Z,5.10
2023-01-03T23:24:50.951Z,4.93
2023-01-03T23:27:19.621Z,4.53
2023-01-03T23:29:47.902Z,4.72
2023-01-03T23:32:16.090Z,5.22
2023-01-03T23:34:44.651Z,4.38
2023-01-03T23:37:12.930Z,3.83
2023-01-03T23:39:42.996Z,4.40
2023-01-03T23:42:11.726Z,4.30
2023-01-03T23:44:39.960Z,4.00
2023-01-03T23:47:12.242Z,4.43
2023-01-03T23:49:41.872Z,4.15
2023-01-03T23:52:10.164Z,3.95
2023-01-03T23:54:38.392Z,4.22
2023-01-03T23:57:08.289Z,3.92
2023-01-03T23:59:36.558Z,3.67
